sensor_id;sensor_type;location;lat;lon;timestamp;temperature;humidity
3986;DHT22;2007;48.750;9.278;2023-07-30T00:01:52;22.40;51.60
3986;DHT22;2007;48.750;9.278;2023-07-30T00:04:20;22.40;51.60
3986;DHT22;2007;48.750;9.278;2023-07-30T00:06:48;22.40;51.60
3986;DHT22;2007;48.750;9.278;2023-07-30T00:09:16;22.40;51.60
3986;DHT22;2007;48.750;9.278;2023-07-30T00:11:46;22.40;51.60
3986;DHT22;2007;48.750;9.278;2023-07-30T00:14:13;22.40;52.30
3986;DHT22;2007;48.750;9.278;2023-07-30T00:16:41;22.40;51.60
3986;DHT22;2007;48.750;9.278;2023-07-30T00:19:09;22.40;51.60
3986;DHT22;2007;48.750;9.278;2023-07-30T00:21:38;22.40;51.60
3986;DHT22;2007;48.750;9.278;2023-07-30T00:24:06;22.40;51.60
3986;DHT22;2007;48.750;9.278;2023-07-30T00:26:35;22.40;51.60
3986;DHT22;2007;48.750;9.278;2023-07-30T00:29:07;22.40;51.60
3986;DHT22;2007;48.750;9.278;2023-07-30T00:31:35;22.40;51.60
3986;DHT22;2007;48.750;9.278;2023-07-30T00:34:03;22.40;51.60
3986;DHT22;2007;48.750;9.278;2023-07-30T00:36:31;22.40;51.60
3986;DHT22;2007;48.750;9.278;2023-07-30T00:38:59;22.40;51.60
3986;DHT22;2007;48.750;9.278;2023-07-30T00:41:27;22.40;51.60
3986;DHT22;2007;48.750;9.278;2023-07-30T00:43:55;22.40;51.60
3986;DHT22;2007;48.750;9.278;2023-07-30T00:46:24;22.40;51.60
3986;DHT22;2007;48.750;9.278;2023-07-30T00:48:52;22.40;51.60
3986;DHT22;2007;48.750;9.278;2023-07-30T00:51:20;22.40;51.60
3986;DHT22;2007;48.750;9.278;2023-07-30T00:53:48;22.40;51.60
3986;DHT22;2007;48.750;9.278;2023-07-30T00:56:16;22.40;51.60
3986;DHT22;2007;48.750;9.278;2023-07-30T00:58:47;22.40;51.60
3986;DHT22;2007;48.750;9.278;2023-07-30T01:01:16;22.40;51.60
3986;DHT22;2007;48.750;9.278;2023-07-30T01:03:45;22.40;51.60
3986;DHT22;2007;48.750;9.278;2023-07-30T01:06:13;22.40;51.60
3986;DHT22;2007;48.750;9.278;2023-07-30T01:08:42;22.40;51.60
3986;DHT22;2007;48.750;9.278;2023-07-30T01:11:10;22.40;51.60
3986;DHT22;2007;48.750;9.278;2023-07-30T01:13:39;22.40;51.60
3986;DHT22;2007;48.750;9.278;2023-07-30T01:16:07;22.40;51.60
3986;DHT22;2007;48.750;9.278;2023-07-30T01:18:35;22.40;51.60
3986;DHT22;2007;48.750;9.278;2023-07-30T01:21:04;22.40;51.60
3986;DHT22;2007;48.750;9.278;2023-07-30T01:23:32;22.40;51.60
3986;DHT22;2007;48.750;9.278;2023-07-30T01:26:06;22.40;51.60
3986;DHT22;2007;48.750;9.278;2023-07-30T01:28:37;22.40;51.60
3986;DHT22;2007;48.750;9.278;2023-07-30T01:31:06;22.40;51.60
3986;DHT22;2007;48.750;9.278;2023-07-30T01:33:37;22.40;51.60
3986;DHT22;2007;48.750;9.278;2023-07-30T01:36:08;22.40;51.60
3986;DHT22;2007;48.750;9.278;2023-07-30T01:38:38;22.40;51.60
3986;DHT22;2007;48.750;9.278;2023-07-30T01:41:07;22.40;51.60
3986;DHT22;2007;48.750;9.278;2023-07-30T01:43:35;22.40;51.60
3986;DHT22;2007;48.750;9.278;2023-07-30T01:46:03;22.40;51.60
3986;DHT22;2007;48.750;9.278;2023-07-30T01:48:31;22.40;51.60
3986;DHT22;2007;48.750;9.278;2023-07-30T01:50:59;22.40;51.60
3986;DHT22;2007;48.750;9.278;2023-07-30T01:53:28;22.40;51.60
3986;DHT22;2007;48.750;9.278;2023-07-30T01:55:56;22.40;51.60
3986;DHT22;2007;48.750;9.278;2023-07-30T01:58:24;22.40;51.60
3986;DHT22;2007;48.750;9.278;2023-07-30T02:00:52;22.40;51.60
3986;DHT22;2007;48.750;9.278;2023-07-30T02:03:20;22.40;51.60
3986;DHT22;2007;48.750;9.278;2023-07-30T02:05:48;22.40;51.60
3986;DHT22;2007;48.750;9.278;2023-07-30T02:08:16;22.40;51.60
3986;DHT22;2007;48.750;9.278;2023-07-30T02:10:54;22.40;51.60
3986;DHT22;2007;48.750;9.278;2023-07-30T02:13:22;22.40;51.50
3986;DHT22;2007;48.750;9.278;2023-07-30T02:15:50;22.40;51.50
3986;DHT22;2007;48.750;9.278;2023-07-30T02:18:19;22.40;51.50
3986;DHT22;2007;48.750;9.278;2023-07-30T02:20:47;22.40;51.60
3986;DHT22;2007;48.750;9.278;2023-07-30T02:23:15;22.40;51.50
3986;DHT22;2007;48.750;9.278;2023-07-30T02:25:45;22.40;51.50
3986;DHT22;2007;48.750;9.278;2023-07-30T02:28:13;22.40;51.50
3986;DHT22;2007;48.750;9.278;2023-07-30T02:30:41;22.40;51.60
3986;DHT22;2007;48.750;9.278;2023-07-30T02:33:09;22.40;51.50
3986;DHT22;2007;48.750;9.278;2023-07-30T02:35:37;22.40;51.50
3986;DHT22;2007;48.750;9.278;2023-07-30T02:38:05;22.40;51.50
3986;DHT22;2007;48.750;9.278;2023-07-30T02:40:33;22.40;51.50
3986;DHT22;2007;48.750;9.278;2023-07-30T02:43:02;22.40;51.60
3986;DHT22;2007;48.750;9.278;2023-07-30T02:45:30;22.40;51.60
3986;DHT22;2007;48.750;9.278;2023-07-30T02:47:58;22.40;51.50
3986;DHT22;2007;48.750;9.278;2023-07-30T02:50:26;22.40;51.50
3986;DHT22;2007;48.750;9.278;2023-07-30T02:52:54;22.40;51.60
3986;DHT22;2007;48.750;9.278;2023-07-30T02:55:22;22.40;51.50
3986;DHT22;2007;48.750;9.278;2023-07-30T02:57:50;22.40;51.60
3986;DHT22;2007;48.750;9.278;2023-07-30T03:00:19;22.40;51.50
3986;DHT22;2007;48.750;9.278;2023-07-30T03:02:47;22.40;51.60
3986;DHT22;2007;48.750;9.278;2023-07-30T03:05:15;22.40;51.60
3986;DHT22;2007;48.750;9.278;2023-07-30T03:07:43;22.40;51.50
3986;DHT22;2007;48.750;9.278;2023-07-30T03:10:11;22.40;51.60
3986;DHT22;2007;48.750;9.278;2023-07-30T03:12:39;22.40;51.60
3986;DHT22;2007;48.750;9.278;2023-07-30T03:15:08;22.40;51.60
3986;DHT22;2007;48.750;9.278;2023-07-30T03:17:37;22.40;51.60
3986;DHT22;2007;48.750;9.278;2023-07-30T03:20:06;22.40;51.50
3986;DHT22;2007;48.750;9.278;2023-07-30T03:22:35;22.40;51.50
3986;DHT22;2007;48.750;9.278;2023-07-30T03:25:04;22.40;51.60
3986;DHT22;2007;48.750;9.278;2023-07-30T03:27:32;22.40;51.60
3986;DHT22;2007;48.750;9.278;2023-07-30T03:29:59;22.40;51.60
3986;DHT22;2007;48.750;9.278;2023-07-30T03:32:27;22.40;51.60
3986;DHT22;2007;48.750;9.278;2023-07-30T03:34:57;22.40;51.60
3986;DHT22;2007;48.750;9.278;2023-07-30T03:37:25;22.40;51.60
3986;DHT22;2007;48.750;9.278;2023-07-30T03:39:53;22.40;51.60
3986;DHT22;2007;48.750;9.278;2023-07-30T03:42:20;22.40;51.60
3986;DHT22;2007;48.750;9.278;2023-07-30T03:44:48;22.40;51.60
3986;DHT22;2007;48.750;9.278;2023-07-30T03:47:16;22.40;51.60
3986;DHT22;2007;48.750;9.278;2023-07-30T03:49:44;22.40;51.60
3986;DHT22;2007;48.750;9.278;2023-07-30T03:52:13;22.40;51.60
3986;DHT22;2007;48.750;9.278;2023-07-30T03:54:41;22.40;51.60
3986;DHT22;2007;48.750;9.278;2023-07-30T03:57:09;22.40;51.60
3986;DHT22;2007;48.750;9.278;2023-07-30T03:59:37;22.40;51.60
3986;DHT22;2007;48.750;9.278;2023-07-30T04:02:05;22.40;51.60
3986;DHT22;2007;48.750;9.278;2023-07-30T04:04:33;22.40;51.60
3986;DHT22;2007;48.750;9.278;2023-07-30T04:07:01;22.40;51.60
3986;DHT22;2007;48.750;9.278;2023-07-30T04:09:30;22.40;51.60
3986;DHT22;2007;48.750;9.278;2023-07-30T04:11:58;22.40;51.60
3986;DHT22;2007;48.750;9.278;2023-07-30T04:14:26;22.40;51.60
3986;DHT22;2007;48.750;9.278;2023-07-30T04:16:54;22.40;51.60
3986;DHT22;2007;48.750;9.278;2023-07-30T04:19:22;22.40;51.60
3986;DHT22;2007;48.750;9.278;2023-07-30T04:21:51;22.40;51.60
3986;DHT22;2007;48.750;9.278;2023-07-30T04:24:19;22.40;51.60
3986;DHT22;2007;48.750;9.278;2023-07-30T04:26:48;22.40;51.70
3986;DHT22;2007;48.750;9.278;2023-07-30T04:29:16;22.40;51.70
3986;DHT22;2007;48.750;9.278;2023-07-30T04:31:44;22.40;51.70
3986;DHT22;2007;48.750;9.278;2023-07-30T04:34:12;22.40;51.70
3986;DHT22;2007;48.750;9.278;2023-07-30T04:36:40;22.40;51.70
3986;DHT22;2007;48.750;9.278;2023-07-30T04:39:08;22.40;51.70
3986;DHT22;2007;48.750;9.278;2023-07-30T04:41:36;22.40;51.70
3986;DHT22;2007;48.750;9.278;2023-07-30T04:44:05;22.40;51.60
3986;DHT22;2007;48.750;9.278;2023-07-30T04:46:33;22.40;51.70
3986;DHT22;2007;48.750;9.278;2023-07-30T04:49:02;22.40;51.70
3986;DHT22;2007;48.750;9.278;2023-07-30T04:51:31;22.40;51.70
3986;DHT22;2007;48.750;9.278;2023-07-30T04:53:59;22.40;51.70
3986;DHT22;2007;48.750;9.278;2023-07-30T04:56:27;22.40;51.60
3986;DHT22;2007;48.750;9.278;2023-07-30T04:58:55;22.40;51.60
3986;DHT22;2007;48.750;9.278;2023-07-30T05:01:25;22.40;51.60
3986;DHT22;2007;48.750;9.278;2023-07-30T05:03:53;22.40;51.60
3986;DHT22;2007;48.750;9.278;2023-07-30T05:06:22;22.40;51.60
3986;DHT22;2007;48.750;9.278;2023-07-30T05:08:50;22.40;51.60
3986;DHT22;2007;48.750;9.278;2023-07-30T05:11:18;22.40;51.70
3986;DHT22;2007;48.750;9.278;2023-07-30T05:13:46;22.40;51.60
3986;DHT22;2007;48.750;9.278;2023-07-30T05:16:14;22.40;51.70
3986;DHT22;2007;48.750;9.278;2023-07-30T05:18:43;22.40;51.60
3986;DHT22;2007;48.750;9.278;2023-07-30T05:21:11;22.40;51.70
3986;DHT22;2007;48.750;9.278;2023-07-30T05:23:39;22.40;51.80
3986;DHT22;2007;48.750;9.278;2023-07-30T05:26:07;22.40;51.70
3986;DHT22;2007;48.750;9.278;2023-07-30T05:28:35;22.40;51.70
3986;DHT22;2007;48.750;9.278;2023-07-30T05:31:03;22.40;51.70
3986;DHT22;2007;48.750;9.278;2023-07-30T05:33:31;22.40;51.70
3986;DHT22;2007;48.750;9.278;2023-07-30T05:36:00;22.40;51.80
3986;DHT22;2007;48.750;9.278;2023-07-30T05:38:28;22.40;51.70
3986;DHT22;2007;48.750;9.278;2023-07-30T05:40:56;22.40;51.60
3986;DHT22;2007;48.750;9.278;2023-07-30T05:43:24;22.40;51.60
3986;DHT22;2007;48.750;9.278;2023-07-30T05:45:52;22.40;51.70
3986;DHT22;2007;48.750;9.278;2023-07-30T05:48:20;22.40;51.60
3986;DHT22;2007;48.750;9.278;2023-07-30T05:50:48;22.40;51.70
3986;DHT22;2007;48.750;9.278;2023-07-30T05:53:17;22.40;51.70
3986;DHT22;2007;48.750;9.278;2023-07-30T05:55:45;22.40;51.70
3986;DHT22;2007;48.750;9.278;2023-07-30T05:58:14;22.40;51.70
3986;DHT22;2007;48.750;9.278;2023-07-30T06:00:42;22.40;51.70
3986;DHT22;2007;48.750;9.278;2023-07-30T06:03:10;22.40;51.70
3986;DHT22;2007;48.750;9.278;2023-07-30T06:05:39;22.40;51.70
3986;DHT22;2007;48.750;9.278;2023-07-30T06:08:08;22.40;51.70
3986;DHT22;2007;48.750;9.278;2023-07-30T06:10:38;22.40;51.70
3986;DHT22;2007;48.750;9.278;2023-07-30T06:13:07;22.40;51.70
3986;DHT22;2007;48.750;9.278;2023-07-30T06:15:35;22.40;51.80
3986;DHT22;2007;48.750;9.278;2023-07-30T06:18:03;22.40;51.70
3986;DHT22;2007;48.750;9.278;2023-07-30T06:20:31;22.40;51.70
3986;DHT22;2007;48.750;9.278;2023-07-30T06:22:59;22.40;51.70
3986;DHT22;2007;48.750;9.278;2023-07-30T06:25:27;22.40;52.40
3986;DHT22;2007;48.750;9.278;2023-07-30T06:27:56;22.40;51.70
3986;DHT22;2007;48.750;9.278;2023-07-30T06:30:25;22.40;51.70
3986;DHT22;2007;48.750;9.278;2023-07-30T06:32:53;22.40;51.70
3986;DHT22;2007;48.750;9.278;2023-07-30T06:35:21;22.40;51.70
3986;DHT22;2007;48.750;9.278;2023-07-30T06:37:50;22.40;51.70
3986;DHT22;2007;48.750;9.278;2023-07-30T06:40:18;22.40;51.60
3986;DHT22;2007;48.750;9.278;2023-07-30T06:42:46;22.40;51.60
3986;DHT22;2007;48.750;9.278;2023-07-30T06:45:16;22.40;51.70
3986;DHT22;2007;48.750;9.278;2023-07-30T06:47:43;22.40;51.60
3986;DHT22;2007;48.750;9.278;2023-07-30T06:50:11;22.40;51.60
3986;DHT22;2007;48.750;9.278;2023-07-30T06:52:39;22.40;51.60
3986;DHT22;2007;48.750;9.278;2023-07-30T06:55:08;22.40;51.60
3986;DHT22;2007;48.750;9.278;2023-07-30T06:57:36;22.40;51.60
3986;DHT22;2007;48.750;9.278;2023-07-30T07:00:04;22.40;51.60
3986;DHT22;2007;48.750;9.278;2023-07-30T07:02:34;22.40;51.70
3986;DHT22;2007;48.750;9.278;2023-07-30T07:05:04;22.40;51.60
3986;DHT22;2007;48.750;9.278;2023-07-30T07:07:31;22.40;51.60
3986;DHT22;2007;48.750;9.278;2023-07-30T07:09:59;22.40;51.70
3986;DHT22;2007;48.750;9.278;2023-07-30T07:12:27;22.40;51.60
3986;DHT22;2007;48.750;9.278;2023-07-30T07:14:55;22.40;51.60
3986;DHT22;2007;48.750;9.278;2023-07-30T07:17:25;22.40;51.70
3986;DHT22;2007;48.750;9.278;2023-07-30T07:19:54;22.40;51.60
3986;DHT22;2007;48.750;9.278;2023-07-30T07:22:22;22.40;51.60
3986;DHT22;2007;48.750;9.278;2023-07-30T07:24:51;22.40;51.70
3986;DHT22;2007;48.750;9.278;2023-07-30T07:27:19;22.40;51.60
3986;DHT22;2007;48.750;9.278;2023-07-30T07:29:47;22.40;51.60
3986;DHT22;2007;48.750;9.278;2023-07-30T07:32:15;22.40;51.60
3986;DHT22;2007;48.750;9.278;2023-07-30T07:34:45;22.40;51.60
3986;DHT22;2007;48.750;9.278;2023-07-30T07:37:15;22.40;51.60
3986;DHT22;2007;48.750;9.278;2023-07-30T07:39:45;22.40;51.60
3986;DHT22;2007;48.750;9.278;2023-07-30T07:42:13;22.40;51.60
3986;DHT22;2007;48.750;9.278;2023-07-30T07:44:41;22.40;51.60
3986;DHT22;2007;48.750;9.278;2023-07-30T07:47:12;22.40;51.60
3986;DHT22;2007;48.750;9.278;2023-07-30T07:49:40;22.40;51.60
3986;DHT22;2007;48.750;9.278;2023-07-30T07:52:08;22.40;51.70
3986;DHT22;2007;48.750;9.278;2023-07-30T07:54:37;22.40;51.70
3986;DHT22;2007;48.750;9.278;2023-07-30T07:57:08;22.40;51.70
3986;DHT22;2007;48.750;9.278;2023-07-30T07:59:36;22.40;51.70
3986;DHT22;2007;48.750;9.278;2023-07-30T08:02:05;22.40;51.70
3986;DHT22;2007;48.750;9.278;2023-07-30T08:04:33;22.40;51.70
3986;DHT22;2007;48.750;9.278;2023-07-30T08:07:01;22.40;51.70
3986;DHT22;2007;48.750;9.278;2023-07-30T08:09:30;22.40;51.70
3986;DHT22;2007;48.750;9.278;2023-07-30T08:12:00;22.40;51.70
3986;DHT22;2007;48.750;9.278;2023-07-30T08:14:29;22.40;51.70
3986;DHT22;2007;48.750;9.278;2023-07-30T08:16:57;22.40;51.70
3986;DHT22;2007;48.750;9.278;2023-07-30T08:19:25;22.40;51.70
3986;DHT22;2007;48.750;9.278;2023-07-30T08:21:53;22.40;51.70
3986;DHT22;2007;48.750;9.278;2023-07-30T08:24:23;22.40;51.70
3986;DHT22;2007;48.750;9.278;2023-07-30T08:26:51;22.40;51.70
3986;DHT22;2007;48.750;9.278;2023-07-30T08:29:20;22.40;51.70
3986;DHT22;2007;48.750;9.278;2023-07-30T08:31:48;22.40;51.70
3986;DHT22;2007;48.750;9.278;2023-07-30T08:34:16;22.40;51.60
3986;DHT22;2007;48.750;9.278;2023-07-30T08:36:44;22.40;51.60
3986;DHT22;2007;48.750;9.278;2023-07-30T08:39:12;22.40;51.70
3986;DHT22;2007;48.750;9.278;2023-07-30T08:41:40;22.40;51.60
3986;DHT22;2007;48.750;9.278;2023-07-30T08:44:09;22.40;52.30
3986;DHT22;2007;48.750;9.278;2023-07-30T08:46:38;22.40;51.70
3986;DHT22;2007;48.750;9.278;2023-07-30T08:49:07;22.40;51.70
3986;DHT22;2007;48.750;9.278;2023-07-30T08:51:36;22.40;51.70
3986;DHT22;2007;48.750;9.278;2023-07-30T08:54:05;22.40;51.70
3986;DHT22;2007;48.750;9.278;2023-07-30T08:56:34;22.40;51.70
3986;DHT22;2007;48.750;9.278;2023-07-30T08:59:02;22.40;51.70
3986;DHT22;2007;48.750;9.278;2023-07-30T09:01:37;22.40;51.70
3986;DHT22;2007;48.750;9.278;2023-07-30T09:04:07;22.40;51.70
3986;DHT22;2007;48.750;9.278;2023-07-30T09:06:35;22.40;51.70
3986;DHT22;2007;48.750;9.278;2023-07-30T09:09:05;22.40;51.70
3986;DHT22;2007;48.750;9.278;2023-07-30T09:11:34;22.40;51.70
3986;DHT22;2007;48.750;9.278;2023-07-30T09:14:03;22.40;51.70
3986;DHT22;2007;48.750;9.278;2023-07-30T09:16:31;22.40;51.80
3986;DHT22;2007;48.750;9.278;2023-07-30T09:18:59;22.40;51.80
3986;DHT22;2007;48.750;9.278;2023-07-30T09:21:32;22.40;51.80
3986;DHT22;2007;48.750;9.278;2023-07-30T09:24:02;22.40;51.90
3986;DHT22;2007;48.750;9.278;2023-07-30T09:26:42;22.40;51.90
3986;DHT22;2007;48.750;9.278;2023-07-30T09:29:11;22.40;51.90
3986;DHT22;2007;48.750;9.278;2023-07-30T09:31:49;22.40;51.90
3986;DHT22;2007;48.750;9.278;2023-07-30T09:34:18;22.40;51.90
3986;DHT22;2007;48.750;9.278;2023-07-30T09:36:50;22.40;51.90
3986;DHT22;2007;48.750;9.278;2023-07-30T09:39:20;22.40;52.00
3986;DHT22;2007;48.750;9.278;2023-07-30T09:41:49;22.40;52.00
3986;DHT22;2007;48.750;9.278;2023-07-30T09:44:18;22.40;52.00
3986;DHT22;2007;48.750;9.278;2023-07-30T09:46:47;22.40;52.00
3986;DHT22;2007;48.750;9.278;2023-07-30T09:49:16;22.40;52.10
3986;DHT22;2007;48.750;9.278;2023-07-30T09:51:45;22.40;52.10
3986;DHT22;2007;48.750;9.278;2023-07-30T09:54:14;22.40;52.00
3986;DHT22;2007;48.750;9.278;2023-07-30T09:56:42;22.40;52.10
3986;DHT22;2007;48.750;9.278;2023-07-30T09:59:10;22.40;52.00
3986;DHT22;2007;48.750;9.278;2023-07-30T10:01:41;22.40;52.00
3986;DHT22;2007;48.750;9.278;2023-07-30T10:04:10;22.40;52.00
3986;DHT22;2007;48.750;9.278;2023-07-30T10:06:42;22.40;52.00
3986;DHT22;2007;48.750;9.278;2023-07-30T10:09:14;22.40;52.00
3986;DHT22;2007;48.750;9.278;2023-07-30T10:11:45;22.40;52.00
3986;DHT22;2007;48.750;9.278;2023-07-30T10:14:14;22.40;52.00
3986;DHT22;2007;48.750;9.278;2023-07-30T10:16:50;22.40;52.00
3986;DHT22;2007;48.750;9.278;2023-07-30T10:19:22;22.40;52.00
3986;DHT22;2007;48.750;9.278;2023-07-30T10:21:50;22.40;52.00
3986;DHT22;2007;48.750;9.278;2023-07-30T10:24:20;22.40;52.10
3986;DHT22;2007;48.750;9.278;2023-07-30T10:26:48;22.40;52.10
3986;DHT22;2007;48.750;9.278;2023-07-30T10:29:17;22.40;52.10
3986;DHT22;2007;48.750;9.278;2023-07-30T10:31:49;22.40;52.10
3986;DHT22;2007;48.750;9.278;2023-07-30T10:34:19;22.40;52.10
3986;DHT22;2007;48.750;9.278;2023-07-30T10:36:49;22.40;52.00
3986;DHT22;2007;48.750;9.278;2023-07-30T10:39:20;22.40;52.10
3986;DHT22;2007;48.750;9.278;2023-07-30T10:41:50;22.40;52.10
3986;DHT22;2007;48.750;9.278;2023-07-30T10:44:21;22.40;52.00
3986;DHT22;2007;48.750;9.278;2023-07-30T10:46:50;22.40;52.00
3986;DHT22;2007;48.750;9.278;2023-07-30T10:49:18;22.40;52.00
3986;DHT22;2007;48.750;9.278;2023-07-30T10:51:46;22.40;52.10
3986;DHT22;2007;48.750;9.278;2023-07-30T10:54:14;22.40;52.00
3986;DHT22;2007;48.750;9.278;2023-07-30T10:56:44;22.40;52.00
3986;DHT22;2007;48.750;9.278;2023-07-30T10:59:13;22.40;52.10
3986;DHT22;2007;48.750;9.278;2023-07-30T11:01:42;22.40;52.00
3986;DHT22;2007;48.750;9.278;2023-07-30T11:04:12;22.40;52.10
3986;DHT22;2007;48.750;9.278;2023-07-30T11:06:44;22.40;52.10
3986;DHT22;2007;48.750;9.278;2023-07-30T11:09:18;22.40;52.00
3986;DHT22;2007;48.750;9.278;2023-07-30T11:11:50;22.40;52.10
3986;DHT22;2007;48.750;9.278;2023-07-30T11:14:19;22.40;52.10
3986;DHT22;2007;48.750;9.278;2023-07-30T11:16:49;22.40;52.10
3986;DHT22;2007;48.750;9.278;2023-07-30T11:19:18;22.40;52.10
3986;DHT22;2007;48.750;9.278;2023-07-30T11:21:46;22.40;52.10
3986;DHT22;2007;48.750;9.278;2023-07-30T11:24:18;22.40;52.10
3986;DHT22;2007;48.750;9.278;2023-07-30T11:26:58;22.40;52.10
3986;DHT22;2007;48.750;9.278;2023-07-30T11:29:26;22.40;52.10
3986;DHT22;2007;48.750;9.278;2023-07-30T11:31:56;22.40;52.00
3986;DHT22;2007;48.750;9.278;2023-07-30T11:34:25;22.40;52.00
3986;DHT22;2007;48.750;9.278;2023-07-30T11:36:53;22.40;52.10
3986;DHT22;2007;48.750;9.278;2023-07-30T11:39:23;22.40;52.10
3986;DHT22;2007;48.750;9.278;2023-07-30T11:41:52;22.40;52.10
3986;DHT22;2007;48.750;9.278;2023-07-30T11:44:35;22.40;52.10
3986;DHT22;2007;48.750;9.278;2023-07-30T11:47:05;22.40;52.10
3986;DHT22;2007;48.750;9.278;2023-07-30T11:49:33;22.40;52.10
3986;DHT22;2007;48.750;9.278;2023-07-30T11:52:05;22.40;52.80
3986;DHT22;2007;48.750;9.278;2023-07-30T11:54:33;22.40;52.10
3986;DHT22;2007;48.750;9.278;2023-07-30T11:57:01;22.40;52.10
3986;DHT22;2007;48.750;9.278;2023-07-30T11:59:30;22.40;52.10
3986;DHT22;2007;48.750;9.278;2023-07-30T12:02:00;22.40;52.10
3986;DHT22;2007;48.750;9.278;2023-07-30T12:04:30;22.40;52.20
3986;DHT22;2007;48.750;9.278;2023-07-30T12:06:58;22.40;52.20
3986;DHT22;2007;48.750;9.278;2023-07-30T12:09:28;22.40;52.10
3986;DHT22;2007;48.750;9.278;2023-07-30T12:11:58;22.40;52.10
3986;DHT22;2007;48.750;9.278;2023-07-30T12:14:28;22.40;52.10
3986;DHT22;2007;48.750;9.278;2023-07-30T12:16:59;22.40;52.10
3986;DHT22;2007;48.750;9.278;2023-07-30T12:19:28;22.40;52.10
3986;DHT22;2007;48.750;9.278;2023-07-30T12:21:55;22.40;52.10
3986;DHT22;2007;48.750;9.278;2023-07-30T12:24:23;22.40;52.20
3986;DHT22;2007;48.750;9.278;2023-07-30T12:26:51;22.40;52.20
3986;DHT22;2007;48.750;9.278;2023-07-30T12:29:22;22.40;52.20
3986;DHT22;2007;48.750;9.278;2023-07-30T12:31:50;22.40;52.20
3986;DHT22;2007;48.750;9.278;2023-07-30T12:34:22;22.40;52.20
3986;DHT22;2007;48.750;9.278;2023-07-30T12:36:51;22.40;52.20
3986;DHT22;2007;48.750;9.278;2023-07-30T12:39:19;22.40;52.20
3986;DHT22;2007;48.750;9.278;2023-07-30T12:41:47;22.40;52.20
3986;DHT22;2007;48.750;9.278;2023-07-30T12:44:15;22.40;52.20
3986;DHT22;2007;48.750;9.278;2023-07-30T12:46:43;22.40;52.20
3986;DHT22;2007;48.750;9.278;2023-07-30T12:49:11;22.40;52.20
3986;DHT22;2007;48.750;9.278;2023-07-30T12:51:40;22.40;52.20
3986;DHT22;2007;48.750;9.278;2023-07-30T12:54:08;22.40;52.20
3986;DHT22;2007;48.750;9.278;2023-07-30T12:56:36;22.40;52.80
3986;DHT22;2007;48.750;9.278;2023-07-30T12:59:04;22.40;52.20
3986;DHT22;2007;48.750;9.278;2023-07-30T13:01:32;22.50;52.30
3986;DHT22;2007;48.750;9.278;2023-07-30T13:04:00;22.40;52.20
3986;DHT22;2007;48.750;9.278;2023-07-30T13:06:28;22.50;52.30
3986;DHT22;2007;48.750;9.278;2023-07-30T13:08:57;22.40;52.20
3986;DHT22;2007;48.750;9.278;2023-07-30T13:11:25;22.40;52.20
3986;DHT22;2007;48.750;9.278;2023-07-30T13:13:53;22.50;52.30
3986;DHT22;2007;48.750;9.278;2023-07-30T13:16:21;22.40;52.20
3986;DHT22;2007;48.750;9.278;2023-07-30T13:18:49;22.40;52.20
3986;DHT22;2007;48.750;9.278;2023-07-30T13:21:19;22.40;52.20
3986;DHT22;2007;48.750;9.278;2023-07-30T13:23:48;22.50;52.30
3986;DHT22;2007;48.750;9.278;2023-07-30T13:26:17;22.50;52.20
3986;DHT22;2007;48.750;9.278;2023-07-30T13:28:46;22.50;52.30
3986;DHT22;2007;48.750;9.278;2023-07-30T13:31:14;22.50;52.20
3986;DHT22;2007;48.750;9.278;2023-07-30T13:33:42;22.50;52.20
3986;DHT22;2007;48.750;9.278;2023-07-30T13:36:12;22.50;52.20
3986;DHT22;2007;48.750;9.278;2023-07-30T13:38:40;22.50;52.30
3986;DHT22;2007;48.750;9.278;2023-07-30T13:41:10;22.50;52.20
3986;DHT22;2007;48.750;9.278;2023-07-30T13:43:39;22.50;52.20
3986;DHT22;2007;48.750;9.278;2023-07-30T13:46:07;22.50;52.20
3986;DHT22;2007;48.750;9.278;2023-07-30T13:48:35;22.50;52.90
3986;DHT22;2007;48.750;9.278;2023-07-30T13:51:03;22.50;52.20
3986;DHT22;2007;48.750;9.278;2023-07-30T13:53:31;22.50;52.20
3986;DHT22;2007;48.750;9.278;2023-07-30T13:56:01;22.50;52.20
3986;DHT22;2007;48.750;9.278;2023-07-30T13:58:29;22.50;52.20
3986;DHT22;2007;48.750;9.278;2023-07-30T14:00:58;22.50;52.20
3986;DHT22;2007;48.750;9.278;2023-07-30T14:03:26;22.50;52.20
3986;DHT22;2007;48.750;9.278;2023-07-30T14:05:54;22.50;52.20
3986;DHT22;2007;48.750;9.278;2023-07-30T14:08:22;22.50;52.20
3986;DHT22;2007;48.750;9.278;2023-07-30T14:10:50;22.50;52.20
3986;DHT22;2007;48.750;9.278;2023-07-30T14:13:18;22.50;52.20
3986;DHT22;2007;48.750;9.278;2023-07-30T14:15:46;22.50;52.20
3986;DHT22;2007;48.750;9.278;2023-07-30T14:18:16;22.50;52.20
3986;DHT22;2007;48.750;9.278;2023-07-30T14:20:44;22.50;52.20
3986;DHT22;2007;48.750;9.278;2023-07-30T14:23:11;22.50;52.20
3986;DHT22;2007;48.750;9.278;2023-07-30T14:25:40;22.50;52.20
3986;DHT22;2007;48.750;9.278;2023-07-30T14:28:08;22.50;52.20
3986;DHT22;2007;48.750;9.278;2023-07-30T14:30:36;22.50;52.10
3986;DHT22;2007;48.750;9.278;2023-07-30T14:33:05;22.50;52.10
3986;DHT22;2007;48.750;9.278;2023-07-30T14:35:35;22.50;52.10
3986;DHT22;2007;48.750;9.278;2023-07-30T14:38:04;22.50;52.10
3986;DHT22;2007;48.750;9.278;2023-07-30T14:40:33;22.50;52.10
3986;DHT22;2007;48.750;9.278;2023-07-30T14:43:01;22.50;52.10
3986;DHT22;2007;48.750;9.278;2023-07-30T14:45:28;22.50;52.10
3986;DHT22;2007;48.750;9.278;2023-07-30T14:47:56;22.50;52.10
3986;DHT22;2007;48.750;9.278;2023-07-30T14:50:25;22.50;52.10
3986;DHT22;2007;48.750;9.278;2023-07-30T14:52:54;22.50;52.10
3986;DHT22;2007;48.750;9.278;2023-07-30T14:55:22;22.50;52.10
3986;DHT22;2007;48.750;9.278;2023-07-30T14:57:50;22.60;52.10
3986;DHT22;2007;48.750;9.278;2023-07-30T15:00:18;22.60;52.10
3986;DHT22;2007;48.750;9.278;2023-07-30T15:02:46;22.50;52.10
3986;DHT22;2007;48.750;9.278;2023-07-30T15:05:14;22.50;52.10
3986;DHT22;2007;48.750;9.278;2023-07-30T15:07:42;22.50;52.10
3986;DHT22;2007;48.750;9.278;2023-07-30T15:10:12;22.60;52.10
3986;DHT22;2007;48.750;9.278;2023-07-30T15:12:40;22.60;52.10
3986;DHT22;2007;48.750;9.278;2023-07-30T15:15:09;22.60;52.10
3986;DHT22;2007;48.750;9.278;2023-07-30T15:17:37;22.60;52.10
3986;DHT22;2007;48.750;9.278;2023-07-30T15:20:06;22.60;52.10
3986;DHT22;2007;48.750;9.278;2023-07-30T15:22:34;22.60;52.10
3986;DHT22;2007;48.750;9.278;2023-07-30T15:25:04;22.60;52.10
3986;DHT22;2007;48.750;9.278;2023-07-30T15:27:34;22.60;52.10
3986;DHT22;2007;48.750;9.278;2023-07-30T15:30:03;22.60;52.10
3986;DHT22;2007;48.750;9.278;2023-07-30T15:32:31;22.60;52.10
3986;DHT22;2007;48.750;9.278;2023-07-30T15:35:00;22.60;52.10
3986;DHT22;2007;48.750;9.278;2023-07-30T15:37:28;22.60;52.10
3986;DHT22;2007;48.750;9.278;2023-07-30T15:39:56;22.60;52.10
3986;DHT22;2007;48.750;9.278;2023-07-30T15:42:24;22.60;52.10
3986;DHT22;2007;48.750;9.278;2023-07-30T15:44:53;22.60;52.10
3986;DHT22;2007;48.750;9.278;2023-07-30T15:47:21;22.60;52.10
3986;DHT22;2007;48.750;9.278;2023-07-30T15:49:49;22.60;52.10
3986;DHT22;2007;48.750;9.278;2023-07-30T15:52:17;22.60;52.00
3986;DHT22;2007;48.750;9.278;2023-07-30T15:54:45;22.60;52.00
3986;DHT22;2007;48.750;9.278;2023-07-30T15:57:13;22.60;52.00
3986;DHT22;2007;48.750;9.278;2023-07-30T15:59:44;22.60;52.00
3986;DHT22;2007;48.750;9.278;2023-07-30T16:02:13;22.60;52.00
3986;DHT22;2007;48.750;9.278;2023-07-30T16:04:41;22.60;52.00
3986;DHT22;2007;48.750;9.278;2023-07-30T16:07:09;22.70;52.10
3986;DHT22;2007;48.750;9.278;2023-07-30T16:09:39;22.60;52.00
3986;DHT22;2007;48.750;9.278;2023-07-30T16:12:07;22.70;52.10